Time;durP1;ratioP1;P1;durP2;ratioP2;P2;SDS_P1;SDS_P2;PMS_P1;PMS_P2;Temp;Humidity;BMP_temperature;BMP_pressure;BME280_temperature;BME280_humidity;BME280_pressure;Samples;Min_cycle;Max_cycle;Signal;HPM_P1;HPM_P2
2021/07/05 00:02:33;;;;;;;3.13;1.90;;;17.70;99.90;;;;;;5030342;28;20783;-71
2021/07/05 00:05:20;;;;;;;2.80;1.77;;;17.70;99.90;;;;;;5024262;28;20488;-71
2021/07/05 00:08:06;;;;;;;8.20;2.20;;;17.80;99.90;;;;;;5025129;28;20430;-72
2021/07/05 00:10:53;;;;;;;3.90;1.93;;;17.80;99.90;;;;;;5027952;28;20586;-72
2021/07/05 00:13:39;;;;;;;2.77;1.70;;;17.90;99.90;;;;;;5026255;28;20458;-71
2021/07/05 00:16:24;;;;;;;4.87;1.80;;;17.90;99.90;;;;;;5028132;28;20566;-73
2021/07/05 00:19:10;;;;;;;3.30;1.73;;;17.90;99.90;;;;;;5028757;28;20899;-72
2021/07/05 00:21:56;;;;;;;3.43;1.70;;;17.80;99.90;;;;;;5023928;28;20459;-72
2021/07/05 00:24:42;;;;;;;2.70;1.90;;;17.80;99.90;;;;;;5021773;28;20456;-71
2021/07/05 00:27:29;;;;;;;2.87;1.50;;;17.90;99.90;;;;;;5028376;28;20497;-72
2021/07/05 00:30:16;;;;;;;2.10;1.57;;;17.90;99.90;;;;;;5030104;28;20419;-72
2021/07/05 00:33:02;;;;;;;2.70;1.80;;;17.80;99.90;;;;;;5023903;28;20412;-72
2021/07/05 00:35:48;;;;;;;3.13;2.00;;;17.70;99.90;;;;;;5026924;28;20523;-71
2021/07/05 00:38:34;;;;;;;3.90;1.70;;;17.70;99.90;;;;;;5026186;28;20429;-72
2021/07/05 00:41:20;;;;;;;2.70;1.97;;;17.60;99.90;;;;;;5027683;28;20454;-73
2021/07/05 00:44:07;;;;;;;6.17;1.97;;;17.60;99.90;;;;;;5028873;28;20990;-72
2021/07/05 00:46:53;;;;;;;2.40;1.80;;;17.60;99.90;;;;;;5029295;28;20442;-72
2021/07/05 00:49:39;;;;;;;3.10;1.97;;;17.60;99.90;;;;;;5028100;28;20468;-71
2021/07/05 00:52:25;;;;;;;2.30;1.70;;;17.60;99.90;;;;;;5029976;28;20514;-72
2021/07/05 00:55:13;;;;;;;3.33;2.00;;;17.70;99.90;;;;;;5027055;28;21023;-71
2021/07/05 00:57:58;;;;;;;3.37;1.43;;;17.70;99.90;;;;;;5021422;28;20984;-71
2021/07/05 01:00:46;;;;;;;5.73;1.43;;;17.80;99.90;;;;;;5022816;28;20577;-72
2021/07/05 01:03:32;;;;;;;3.70;1.73;;;17.80;99.90;;;;;;5028331;28;20414;-72
2021/07/05 01:06:19;;;;;;;5.47;2.00;;;17.90;99.90;;;;;;5026836;28;20582;-72
2021/07/05 01:09:05;;;;;;;6.40;1.70;;;17.80;99.90;;;;;;5028122;28;20448;-71
2021/07/05 01:11:51;;;;;;;2.30;1.50;;;17.80;99.90;;;;;;5024286;28;20432;-72
2021/07/05 01:14:37;;;;;;;3.87;1.50;;;17.80;99.90;;;;;;5027144;28;20422;-71
2021/07/05 01:17:25;;;;;;;4.10;1.77;;;17.90;99.90;;;;;;5032392;28;20552;-71
2021/07/05 01:20:13;;;;;;;7.67;2.20;;;17.80;99.90;;;;;;5032269;28;20584;-71
2021/07/05 01:23:00;;;;;;;2.80;1.90;;;17.80;99.90;;;;;;5031497;28;20560;-72
2021/07/05 01:25:46;;;;;;;4.60;1.30;;;17.70;99.90;;;;;;5025813;28;20535;-72
2021/07/05 01:28:32;;;;;;;3.80;1.70;;;17.60;99.90;;;;;;5032353;28;20567;-72
2021/07/05 01:31:17;;;;;;;2.63;1.80;;;17.60;99.90;;;;;;5032287;28;20455;-71
2021/07/05 01:34:03;;;;;;;3.63;1.63;;;17.50;99.90;;;;;;5028784;28;20434;-71
2021/07/05 01:36:49;;;;;;;3.07;1.53;;;17.50;99.90;;;;;;5026713;28;20413;-73
2021/07/05 01:39:36;;;;;;;2.10;1.67;;;17.40;99.90;;;;;;5030058;28;20422;-72
2021/07/05 01:42:22;;;;;;;3.93;1.80;;;17.30;99.90;;;;;;5018159;28;20498;-72
2021/07/05 01:45:09;;;;;;;4.23;1.43;;;17.30;99.90;;;;;;5029351;28;20478;-71
2021/07/05 01:47:55;;;;;;;2.17;1.50;;;17.30;99.90;;;;;;5030873;28;21002;-72
2021/07/05 01:50:41;;;;;;;3.37;1.40;;;17.30;99.90;;;;;;5028808;28;20421;-72
2021/07/05 01:53:26;;;;;;;2.57;1.40;;;17.10;99.90;;;;;;5030862;28;20530;-71
2021/07/05 01:56:13;;;;;;;2.77;1.50;;;17.10;99.90;;;;;;5074269;22;20472;-74
2021/07/05 01:58:59;;;;;;;2.27;1.70;;;17.00;99.90;;;;;;5065065;28;20667;-74
2021/07/05 02:01:45;;;;;;;7.00;1.70;;;16.80;99.90;;;;;;5069592;28;20524;-74
2021/07/05 02:04:30;;;;;;;5.17;1.63;;;16.80;99.90;;;;;;5071504;28;20513;-74
2021/07/05 02:07:17;;;;;;;7.10;1.80;;;16.90;99.90;;;;;;5063637;28;20522;-74
2021/07/05 02:10:04;;;;;;;3.77;1.63;;;17.00;99.90;;;;;;5067545;28;20449;-74
2021/07/05 02:12:52;;;;;;;5.20;1.60;;;17.00;99.90;;;;;;5065454;28;20764;-74
2021/07/05 02:15:39;;;;;;;5.40;2.13;;;17.10;99.90;;;;;;5070752;28;20471;-74
2021/07/05 02:18:26;;;;;;;4.33;1.67;;;17.20;99.90;;;;;;5063073;28;20457;-74
2021/07/05 02:21:11;;;;;;;3.17;1.93;;;17.20;99.90;;;;;;5072976;28;20393;-74
2021/07/05 02:23:57;;;;;;;3.80;1.70;;;17.20;99.90;;;;;;5060495;28;20516;-74
2021/07/05 02:26:43;;;;;;;2.10;1.43;;;17.20;99.90;;;;;;5070312;28;20525;-74
2021/07/05 02:29:30;;;;;;;2.27;1.47;;;17.30;99.90;;;;;;5059612;28;20424;-74
2021/07/05 02:32:16;;;;;;;2.50;1.83;;;17.40;99.90;;;;;;5066781;28;20435;-74
2021/07/05 02:35:02;;;;;;;4.80;1.40;;;17.40;99.90;;;;;;5058530;28;20429;-73
2021/07/05 02:37:48;;;;;;;4.70;1.70;;;17.40;99.90;;;;;;5058497;28;20444;-74
2021/07/05 02:40:36;;;;;;;6.00;1.63;;;17.40;99.90;;;;;;5068666;28;20440;-74
2021/07/05 02:43:22;;;;;;;4.17;1.60;;;17.40;99.90;;;;;;5067725;28;20454;-73
2021/07/05 02:46:09;;;;;;;4.23;1.60;;;17.30;99.90;;;;;;5055182;28;20651;-74
2021/07/05 02:48:55;;;;;;;4.83;1.90;;;17.40;99.90;;;;;;5056142;28;21028;-73
2021/07/05 02:51:40;;;;;;;3.67;2.20;;;17.40;99.90;;;;;;5059861;28;20585;-74
2021/07/05 02:54:26;;;;;;;4.07;2.40;;;17.40;99.90;;;;;;5068111;28;21093;-74
2021/07/05 02:57:28;;;;;;;4.23;1.90;;;17.40;99.90;;;;;;5060627;28;21008;-74
2021/07/05 03:00:17;;;;;;;2.00;1.40;;;17.50;99.90;;;;;;5068832;28;20495;-74
2021/07/05 03:03:04;;;;;;;3.77;1.77;;;17.50;99.90;;;;;;5063027;28;20435;-74
2021/07/05 03:05:50;;;;;;;3.70;1.80;;;17.50;99.90;;;;;;5066977;28;20465;-74
2021/07/05 03:08:36;;;;;;;4.07;2.03;;;17.50;99.90;;;;;;5063833;28;20570;-74
2021/07/05 03:11:22;;;;;;;3.70;1.80;;;17.60;99.90;;;;;;5063084;28;20420;-74
2021/07/05 03:14:08;;;;;;;6.73;2.07;;;17.70;99.90;;;;;;5070918;28;20464;-74
2021/07/05 03:16:53;;;;;;;2.93;1.60;;;17.80;99.90;;;;;;5060095;28;20442;-74
2021/07/05 03:19:41;;;;;;;3.63;2.00;;;17.90;99.90;;;;;;5062883;28;20410;-74
2021/07/05 03:22:27;;;;;;;4.73;1.70;;;17.90;99.90;;;;;;5069727;28;20970;-74
2021/07/05 03:25:14;;;;;;;4.80;2.40;;;18.00;99.90;;;;;;5067770;28;21129;-74
2021/07/05 03:28:00;;;;;;;2.30;1.83;;;17.90;99.90;;;;;;5070499;28;20433;-73
2021/07/05 03:30:48;;;;;;;3.80;1.90;;;18.00;99.90;;;;;;5062381;28;20458;-74
2021/07/05 03:33:33;;;;;;;2.53;1.80;;;18.00;99.90;;;;;;5070301;28;20457;-74
2021/07/05 03:36:20;;;;;;;3.47;2.23;;;17.90;99.90;;;;;;5060520;28;20533;-74
2021/07/05 03:39:06;;;;;;;3.60;2.30;;;18.00;99.90;;;;;;5056987;28;20769;-74
2021/07/05 03:41:52;;;;;;;4.60;1.80;;;18.10;99.90;;;;;;5069817;28;20416;-74
2021/07/05 03:44:38;;;;;;;6.10;2.20;;;18.00;99.90;;;;;;5062382;28;20964;-74
2021/07/05 03:47:24;;;;;;;3.27;2.20;;;18.00;99.90;;;;;;5066390;28;20443;-74
2021/07/05 03:50:11;;;;;;;3.37;1.70;;;18.00;99.90;;;;;;5059764;28;20455;-74
2021/07/05 03:52:59;;;;;;;2.87;1.87;;;18.10;99.90;;;;;;5059099;28;20888;-74
2021/07/05 03:55:46;;;;;;;2.40;2.07;;;18.10;99.90;;;;;;5064067;28;20464;-74
2021/07/05 03:58:32;;;;;;;3.10;1.90;;;18.20;99.90;;;;;;5070972;28;20404;-74
2021/07/05 04:01:17;;;;;;;3.07;1.70;;;18.20;99.90;;;;;;5061139;28;20425;-74
2021/07/05 04:04:03;;;;;;;5.57;1.70;;;18.30;99.90;;;;;;5066581;28;21066;-74
2021/07/05 04:06:50;;;;;;;7.47;1.93;;;18.30;99.90;;;;;;5066694;28;20444;-74
2021/07/05 04:09:39;;;;;;;3.20;2.23;;;18.20;99.90;;;;;;5066816;28;20470;-74
2021/07/05 04:12:24;;;;;;;2.93;1.97;;;18.30;99.90;;;;;;5068613;28;20456;-74
2021/07/05 04:15:10;;;;;;;3.67;2.40;;;18.40;99.90;;;;;;5069725;28;20585;-74
2021/07/05 04:17:56;;;;;;;3.60;1.60;;;18.50;99.90;;;;;;5064738;28;20470;-74
2021/07/05 04:20:42;;;;;;;2.70;1.70;;;18.50;99.90;;;;;;5058851;28;20878;-74
2021/07/05 04:23:27;;;;;;;3.13;1.60;;;18.60;99.90;;;;;;5057272;28;20505;-73
2021/07/05 04:26:14;;;;;;;4.60;2.20;;;18.40;99.90;;;;;;5067466;28;20440;-74
2021/07/05 04:29:00;;;;;;;2.63;2.00;;;18.40;99.90;;;;;;5068552;28;20453;-74
2021/07/05 04:31:46;;;;;;;2.73;1.70;;;18.40;99.90;;;;;;5063977;28;20427;-74
2021/07/05 04:34:32;;;;;;;5.07;2.40;;;18.30;99.90;;;;;;5066625;28;20443;-74
2021/07/05 04:37:18;;;;;;;5.60;2.17;;;18.30;99.90;;;;;;5068035;28;20910;-74
2021/07/05 04:40:05;;;;;;;4.43;1.60;;;18.30;99.90;;;;;;5063397;28;20496;-74
2021/07/05 04:42:52;;;;;;;5.00;1.87;;;18.30;99.90;;;;;;5066896;28;20427;-74
2021/07/05 04:45:38;;;;;;;4.33;2.00;;;18.30;99.90;;;;;;5069308;28;20831;-75
2021/07/05 04:48:24;;;;;;;2.83;1.77;;;18.30;99.90;;;;;;5067066;28;21251;-74
2021/07/05 04:51:13;;;;;;;4.03;1.67;;;18.30;99.90;;;;;;5067118;28;20451;-74
2021/07/05 04:53:58;;;;;;;5.67;2.00;;;18.30;99.90;;;;;;5070913;28;20424;-75
2021/07/05 04:56:44;;;;;;;4.57;1.80;;;18.40;99.90;;;;;;5061312;28;20456;-75
2021/07/05 04:59:32;;;;;;;2.83;1.50;;;18.40;99.90;;;;;;5072045;28;20431;-74
2021/07/05 05:02:18;;;;;;;5.53;1.80;;;18.30;99.90;;;;;;5070265;28;20441;-75
2021/07/05 05:05:05;;;;;;;2.50;1.60;;;18.30;99.90;;;;;;5071276;28;20506;-74
2021/07/05 05:07:51;;;;;;;3.13;1.80;;;18.30;99.90;;;;;;5055927;28;20478;-75
2021/07/05 05:10:38;;;;;;;3.53;1.27;;;18.30;99.90;;;;;;5073954;28;20423;-74
2021/07/05 05:13:23;;;;;;;5.67;2.00;;;18.30;99.90;;;;;;5071138;28;20554;-74
2021/07/05 05:16:11;;;;;;;3.40;2.20;;;18.20;99.90;;;;;;5060656;28;20498;-75
2021/07/05 05:18:57;;;;;;;2.50;1.60;;;18.10;99.90;;;;;;5062979;28;20875;-75
2021/07/05 05:21:43;;;;;;;6.07;2.60;;;18.10;99.90;;;;;;5058090;28;20483;-75
2021/07/05 05:24:29;;;;;;;5.60;2.10;;;18.10;99.90;;;;;;5069107;28;20427;-75
2021/07/05 05:27:15;;;;;;;3.77;1.50;;;18.20;99.90;;;;;;5073609;28;20982;-75
2021/07/05 05:30:00;;;;;;;6.13;2.10;;;18.30;99.90;;;;;;5070538;28;20457;-74
2021/07/05 05:32:48;;;;;;;8.20;2.07;;;18.20;99.90;;;;;;5063803;28;20533;-74
2021/07/05 05:35:34;;;;;;;4.53;1.80;;;18.20;99.90;;;;;;5066735;28;20466;-75
2021/07/05 05:38:20;;;;;;;8.43;1.80;;;18.20;99.90;;;;;;5063508;28;20537;-74
2021/07/05 05:41:07;;;;;;;5.03;2.23;;;18.30;99.90;;;;;;5071358;28;20471;-74
2021/07/05 05:43:52;;;;;;;2.63;1.90;;;18.30;99.90;;;;;;5071026;28;20421;-74
2021/07/05 05:46:38;;;;;;;7.40;1.90;;;18.20;99.90;;;;;;5070561;28;20575;-74
2021/07/05 05:49:25;;;;;;;3.50;1.70;;;18.10;99.90;;;;;;5072750;28;20459;-74
2021/07/05 05:52:11;;;;;;;10.17;2.33;;;18.10;99.90;;;;;;5069746;28;20505;-74
2021/07/05 05:54:57;;;;;;;4.70;2.27;;;18.10;99.90;;;;;;5069849;28;20826;-74
2021/07/05 05:57:43;;;;;;;3.90;2.50;;;18.10;99.90;;;;;;5066730;28;20774;-74
2021/07/05 06:00:28;;;;;;;2.90;1.93;;;18.20;99.90;;;;;;5068526;28;20424;-74
2021/07/05 06:03:14;;;;;;;3.70;2.20;;;18.00;99.90;;;;;;5064383;28;20411;-75
2021/07/05 06:06:01;;;;;;;3.43;1.93;;;18.00;99.90;;;;;;5072646;28;20516;-74
2021/07/05 06:08:47;;;;;;;5.43;2.20;;;18.10;99.90;;;;;;5074543;28;20430;-74
2021/07/05 06:11:32;;;;;;;4.23;2.13;;;18.30;99.90;;;;;;5073417;28;20468;-74
2021/07/05 06:14:18;;;;;;;3.40;2.00;;;18.10;99.90;;;;;;5073331;28;20474;-74
2021/07/05 06:17:04;;;;;;;7.90;2.43;;;18.20;99.90;;;;;;5061673;28;20482;-75
2021/07/05 06:19:50;;;;;;;4.30;2.40;;;18.10;99.90;;;;;;5066628;28;20490;-73
2021/07/05 06:22:47;;;;;;;6.63;3.20;;;18.10;99.90;;;;;;5065300;28;20434;-74
2021/07/05 06:25:32;;;;;;;3.43;2.00;;;18.20;99.90;;;;;;5070269;28;20462;-73
2021/07/05 06:28:19;;;;;;;5.10;2.23;;;18.20;99.90;;;;;;5068495;28;20474;-74
2021/07/05 06:31:05;;;;;;;2.57;1.90;;;18.30;99.90;;;;;;5066185;28;20432;-74
2021/07/05 06:33:51;;;;;;;7.93;2.67;;;18.40;99.90;;;;;;5069813;28;20416;-74
2021/07/05 06:36:38;;;;;;;6.70;1.90;;;18.40;99.90;;;;;;5070885;28;20490;-74
2021/07/05 06:39:25;;;;;;;5.23;2.27;;;18.30;99.90;;;;;;5076969;28;20460;-74
2021/07/05 06:42:11;;;;;;;3.30;2.30;;;18.30;99.90;;;;;;5067185;28;20427;-74
2021/07/05 06:44:56;;;;;;;4.33;2.03;;;18.30;99.90;;;;;;5065431;28;20943;-74
2021/07/05 06:47:42;;;;;;;6.50;2.20;;;18.30;99.90;;;;;;5070093;28;20473;-74
2021/07/05 06:50:29;;;;;;;7.53;2.37;;;18.40;99.90;;;;;;5071067;28;20422;-73
2021/07/05 06:53:15;;;;;;;5.00;2.10;;;18.50;99.90;;;;;;5064892;28;20412;-74
2021/07/05 06:56:02;;;;;;;9.20;2.20;;;18.60;99.90;;;;;;5071145;28;20493;-74
2021/07/05 06:58:47;;;;;;;5.53;2.10;;;18.60;99.90;;;;;;5065581;28;20805;-74
2021/07/05 07:01:34;;;;;;;4.20;2.50;;;18.50;99.90;;;;;;5066321;28;20815;-72
2021/07/05 07:04:20;;;;;;;9.07;2.40;;;18.40;99.90;;;;;;5068908;28;20426;-74
2021/07/05 07:07:05;;;;;;;2.83;2.00;;;18.40;99.90;;;;;;5065914;28;20469;-74
2021/07/05 07:09:51;;;;;;;5.10;1.90;;;18.40;99.90;;;;;;5069391;28;20537;-74
2021/07/05 07:12:39;;;;;;;4.53;2.30;;;18.50;99.90;;;;;;5067436;28;20533;-74
2021/07/05 07:15:29;;;;;;;5.87;2.03;;;18.50;99.90;;;;;;5070231;28;20446;-74
2021/07/05 07:18:33;;;;;;;6.37;1.93;;;18.60;99.90;;;;;;5070322;28;20465;-74
2021/07/05 07:21:18;;;;;;;3.77;2.00;;;18.70;99.90;;;;;;5058033;28;20470;-74
2021/07/05 07:24:05;;;;;;;3.87;2.27;;;18.60;99.90;;;;;;5067412;28;20519;-74
2021/07/05 07:26:50;;;;;;;4.27;2.20;;;18.60;99.90;;;;;;5055342;28;20471;-74
2021/07/05 07:29:37;;;;;;;2.83;1.90;;;18.60;99.90;;;;;;5063421;28;20419;-74
2021/07/05 07:32:23;;;;;;;5.47;1.90;;;18.60;99.90;;;;;;5071181;28;20928;-74
2021/07/05 07:35:10;;;;;;;13.83;1.93;;;18.60;99.90;;;;;;5070986;28;20473;-74
2021/07/05 07:37:56;;;;;;;3.73;2.30;;;18.60;99.90;;;;;;5070986;28;20929;-74
2021/07/05 07:40:42;;;;;;;2.70;1.57;;;18.60;99.90;;;;;;5067699;28;20461;-74
2021/07/05 07:43:28;;;;;;;3.20;2.00;;;18.60;99.90;;;;;;5065999;28;20449;-74
2021/07/05 07:46:15;;;;;;;3.43;2.23;;;18.60;99.90;;;;;;5067139;28;20836;-75
2021/07/05 07:49:01;;;;;;;3.63;2.00;;;18.70;99.90;;;;;;5071596;28;20766;-74
2021/07/05 07:51:47;;;;;;;5.00;2.33;;;18.80;99.90;;;;;;5070726;28;20504;-74
2021/07/05 07:54:33;;;;;;;3.10;1.60;;;18.90;99.90;;;;;;5071007;28;21064;-74
2021/07/05 07:57:18;;;;;;;3.13;1.63;;;18.90;99.90;;;;;;5057544;22;20471;-72
2021/07/05 08:00:06;;;;;;;4.73;1.60;;;19.00;99.90;;;;;;5039354;28;20494;-72
2021/07/05 08:02:53;;;;;;;7.33;2.10;;;19.00;99.90;;;;;;5051308;28;20540;-72
2021/07/05 08:05:38;;;;;;;2.67;1.50;;;19.00;99.90;;;;;;5047033;28;20992;-72
2021/07/05 08:08:24;;;;;;;8.03;2.20;;;19.10;99.90;;;;;;5047493;28;20531;-72
2021/07/05 08:11:09;;;;;;;3.13;1.60;;;19.10;99.90;;;;;;5043767;28;20528;-72
2021/07/05 08:13:55;;;;;;;3.07;2.10;;;18.90;99.90;;;;;;5038408;28;20455;-72
2021/07/05 08:16:41;;;;;;;4.37;2.03;;;18.90;99.90;;;;;;5050749;28;20429;-72
2021/07/05 08:19:28;;;;;;;3.23;1.60;;;19.00;99.90;;;;;;5051257;28;20429;-72
2021/07/05 08:22:13;;;;;;;5.27;2.13;;;18.90;99.90;;;;;;5050960;28;20818;-72
2021/07/05 08:24:59;;;;;;;2.90;1.63;;;19.00;99.90;;;;;;5053785;28;20535;-72
2021/07/05 08:27:45;;;;;;;2.97;1.80;;;19.10;99.90;;;;;;5047349;28;20476;-72
2021/07/05 08:30:30;;;;;;;6.17;2.30;;;19.20;99.90;;;;;;5042536;28;20609;-72
2021/07/05 08:33:16;;;;;;;6.03;1.83;;;19.20;99.90;;;;;;5035908;28;20445;-72
2021/07/05 08:36:05;;;;;;;8.07;1.97;;;19.20;99.90;;;;;;5042936;28;21187;-73
2021/07/05 08:38:51;;;;;;;3.60;1.77;;;19.30;99.90;;;;;;5044671;28;20521;-72
2021/07/05 08:41:37;;;;;;;3.50;1.60;;;19.40;99.90;;;;;;5052233;28;20417;-72
2021/07/05 08:44:24;;;;;;;3.10;1.90;;;19.40;99.90;;;;;;5055176;28;20589;-72
2021/07/05 08:47:10;;;;;;;5.07;1.60;;;19.40;99.90;;;;;;5051798;28;20479;-73
2021/07/05 08:49:56;;;;;;;3.07;1.70;;;19.40;99.90;;;;;;5052060;28;20515;-72
2021/07/05 08:52:44;;;;;;;4.40;1.53;;;19.50;99.90;;;;;;5053691;28;20594;-72
2021/07/05 08:55:30;;;;;;;3.50;1.73;;;19.40;99.90;;;;;;5053863;28;21035;-72
2021/07/05 08:58:16;;;;;;;3.60;1.90;;;19.40;99.90;;;;;;5051529;28;21392;-72
2021/07/05 09:01:02;;;;;;;7.27;1.73;;;19.50;99.90;;;;;;5050320;28;20489;-70
2021/07/05 09:03:50;;;;;;;5.03;1.80;;;19.40;99.90;;;;;;5052064;28;20451;-69
2021/07/05 09:06:36;;;;;;;2.20;1.70;;;19.40;99.90;;;;;;5046073;28;20526;-70
2021/07/05 09:09:23;;;;;;;5.33;2.00;;;19.50;99.90;;;;;;5045411;28;20814;-70
2021/07/05 09:12:10;;;;;;;3.40;1.87;;;19.60;99.90;;;;;;5053694;28;20824;-71
2021/07/05 09:15:08;;;;;;;3.13;1.63;;;19.60;99.90;;;;;;5049700;28;20452;-70
2021/07/05 09:17:53;;;;;;;5.37;1.47;;;19.60;99.90;;;;;;5048736;28;20476;-70
2021/07/05 09:20:39;;;;;;;3.60;1.60;;;19.70;99.90;;;;;;5053516;28;20484;-70
2021/07/05 09:23:25;;;;;;;7.20;1.53;;;19.80;99.90;;;;;;5053433;28;20466;-70
2021/07/05 09:26:19;;;;;;;7.60;1.77;;;19.90;99.90;;;;;;5052438;28;20478;-70
2021/07/05 09:29:07;;;;;;;4.73;1.30;;;20.00;99.90;;;;;;5052771;28;20553;-70
2021/07/05 09:31:54;;;;;;;1.73;1.27;;;20.20;99.90;;;;;;5053428;28;20972;-71
2021/07/05 09:34:42;;;;;;;2.90;1.80;;;20.30;99.90;;;;;;5037182;28;20454;-71
2021/07/05 09:37:30;;;;;;;7.40;1.43;;;20.40;99.90;;;;;;5048610;28;20471;-70
2021/07/05 09:40:17;;;;;;;3.40;1.60;;;20.10;99.90;;;;;;5054039;28;20456;-70
2021/07/05 09:43:21;;;;;;;10.10;1.50;;;19.90;99.90;;;;;;5053609;28;20455;-70
2021/07/05 09:46:11;;;;;;;6.90;2.47;;;19.80;99.90;;;;;;5053073;28;20471;-70
2021/07/05 09:48:56;;;;;;;2.67;1.20;;;19.70;99.90;;;;;;5040761;28;20561;-70
2021/07/05 09:51:43;;;;;;;3.90;1.70;;;19.70;99.90;;;;;;5044145;28;20444;-71
2021/07/05 09:54:29;;;;;;;5.40;1.70;;;19.70;99.90;;;;;;5049008;28;20428;-70
2021/07/05 09:57:28;;;;;;;5.40;1.77;;;19.70;99.90;;;;;;5053482;28;20474;-70
2021/07/05 10:00:18;;;;;;;6.50;2.07;;;19.50;99.90;;;;;;5041103;28;20809;-70
2021/07/05 10:03:07;;;;;;;2.63;1.90;;;19.60;99.90;;;;;;5039304;28;20442;-70
2021/07/05 10:05:53;;;;;;;4.23;2.10;;;19.60;99.90;;;;;;5053901;28;20594;-70
2021/07/05 10:08:39;;;;;;;3.00;1.80;;;19.60;99.90;;;;;;5051804;28;20478;-70
2021/07/05 10:11:24;;;;;;;4.87;1.70;;;19.50;99.90;;;;;;5063457;28;20396;-72
2021/07/05 10:14:13;;;;;;;6.90;2.40;;;19.40;99.90;;;;;;5041525;28;20577;-72
2021/07/05 10:17:15;;;;;;;7.30;2.40;;;19.40;99.90;;;;;;5047563;28;20791;-72
2021/07/05 10:20:01;;;;;;;4.53;2.10;;;19.30;99.90;;;;;;5043287;28;20452;-72
2021/07/05 10:22:49;;;;;;;5.07;1.80;;;19.40;99.90;;;;;;5049602;28;20472;-72
2021/07/05 10:25:37;;;;;;;2.93;1.73;;;19.50;99.90;;;;;;5052601;28;20409;-72
2021/07/05 10:28:23;;;;;;;4.83;1.87;;;19.60;99.90;;;;;;5049508;28;20483;-72
2021/07/05 10:31:09;;;;;;;3.20;1.60;;;19.60;99.90;;;;;;5050968;28;20503;-72
2021/07/05 10:33:59;;;;;;;3.17;1.80;;;19.50;99.90;;;;;;5038600;28;20415;-72
2021/07/05 10:36:51;;;;;;;4.10;1.77;;;19.30;99.90;;;;;;5045669;28;20437;-72
2021/07/05 10:39:37;;;;;;;9.53;2.20;;;19.10;99.90;;;;;;5042913;28;20451;-72
2021/07/05 10:42:32;;;;;;;2.80;1.80;;;19.00;99.90;;;;;;5052748;28;20947;-72
2021/07/05 10:45:18;;;;;;;4.70;1.80;;;19.00;99.90;;;;;;5048763;28;20459;-72
2021/07/05 10:48:05;;;;;;;3.13;2.00;;;18.90;99.90;;;;;;5051014;28;21160;-72
2021/07/05 10:50:56;;;;;;;9.97;2.40;;;19.00;99.90;;;;;;5048771;28;20459;-72
2021/07/05 10:53:59;;;;;;;10.23;2.40;;;19.10;99.90;;;;;;5040169;28;20770;-72
2021/07/05 10:56:54;;;;;;;4.47;2.40;;;19.30;99.90;;;;;;5040152;28;20839;-70
2021/07/05 10:59:43;;;;;;;4.43;1.87;;;19.40;99.90;;;;;;5043589;28;20842;-70
2021/07/05 11:02:42;;;;;;;5.93;1.70;;;19.50;99.90;;;;;;5052467;28;20899;-70
2021/07/05 11:05:42;;;;;;;3.73;2.37;;;19.50;99.90;;;;;;5047564;28;20455;-71
2021/07/05 11:08:35;;;;;;;3.90;2.00;;;19.40;99.90;;;;;;5051666;28;20460;-70
2021/07/05 11:11:24;;;;;;;5.57;3.30;;;19.30;99.90;;;;;;5049277;28;20411;-70
2021/07/05 11:14:14;;;;;;;3.80;2.00;;;19.40;99.90;;;;;;5043267;28;20459;-70
2021/07/05 11:17:09;;;;;;;4.27;2.47;;;19.60;99.90;;;;;;5039872;28;20472;-70
2021/07/05 11:19:55;;;;;;;3.37;2.07;;;19.50;99.90;;;;;;5034321;28;20483;-72
2021/07/05 11:22:53;;;;;;;5.40;2.27;;;19.40;99.90;;;;;;5035606;28;21390;-72
2021/07/05 11:25:40;;;;;;;5.57;2.33;;;19.40;99.90;;;;;;5044210;28;20911;-72
2021/07/05 11:28:26;;;;;;;3.87;2.20;;;19.40;99.90;;;;;;5047021;28;20496;-73
2021/07/05 11:31:21;;;;;;;7.13;2.60;;;19.50;99.90;;;;;;5044814;28;20479;-71
2021/07/05 11:34:27;;;;;;;4.43;2.57;;;19.50;99.90;;;;;;5044834;28;21090;-72
2021/07/05 11:37:33;;;;;;;4.80;2.60;;;19.60;99.90;;;;;;5048040;28;20461;-72
2021/07/05 11:40:43;;;;;;;3.10;2.40;;;19.70;99.90;;;;;;5048201;28;20431;-72
2021/07/05 11:43:45;;;;;;;2.73;2.00;;;19.70;99.90;;;;;;5050713;28;20530;-72
2021/07/05 11:46:49;;;;;;;8.47;2.77;;;19.70;99.90;;;;;;5048825;28;20463;-72
2021/07/05 11:49:36;;;;;;;5.00;3.00;;;19.70;99.90;;;;;;5051382;28;20449;-73
2021/07/05 11:52:23;;;;;;;4.93;2.30;;;19.70;99.90;;;;;;5051586;28;20431;-72
2021/07/05 11:55:09;;;;;;;4.10;2.33;;;19.90;99.90;;;;;;5048992;28;20513;-72
2021/07/05 11:57:58;;;;;;;4.20;2.17;;;20.00;99.90;;;;;;5045345;28;20409;-72
2021/07/05 12:00:44;;;;;;;5.43;2.70;;;19.90;99.90;;;;;;5051481;28;20512;-72
2021/07/05 12:03:29;;;;;;;5.03;1.90;;;20.00;99.90;;;;;;5032539;28;20433;-72
2021/07/05 12:06:15;;;;;;;3.73;1.90;;;19.90;99.90;;;;;;5042967;28;21030;-72
2021/07/05 12:09:02;;;;;;;4.70;1.83;;;19.90;99.90;;;;;;5048989;28;20830;-72
2021/07/05 12:11:50;;;;;;;6.70;2.37;;;19.90;99.90;;;;;;5046542;28;21069;-72
2021/07/05 12:14:38;;;;;;;4.30;1.97;;;19.90;99.90;;;;;;5049881;28;20451;-72
2021/07/05 12:17:24;;;;;;;6.37;2.00;;;19.80;99.90;;;;;;5048883;28;20468;-72
2021/07/05 12:20:11;;;;;;;2.00;1.20;;;19.80;99.90;;;;;;5047706;28;20439;-70
2021/07/05 12:22:57;;;;;;;4.83;1.80;;;19.70;99.90;;;;;;5044129;28;20446;-70
2021/07/05 12:25:43;;;;;;;5.20;1.60;;;19.70;99.90;;;;;;5044274;28;20423;-70
2021/07/05 12:28:28;;;;;;;4.03;1.47;;;19.80;99.90;;;;;;5047357;28;20999;-71
2021/07/05 12:31:22;;;;;;;2.47;1.67;;;19.70;99.90;;;;;;5039079;28;20982;-70
2021/07/05 12:34:07;;;;;;;2.33;1.73;;;19.80;99.90;;;;;;5050421;28;20572;-69
2021/07/05 12:36:53;;;;;;;4.37;1.53;;;19.70;99.90;;;;;;5050106;28;20541;-70
2021/07/05 12:39:58;;;;;;;2.47;1.50;;;19.90;99.90;;;;;;5044409;28;20528;-70
2021/07/05 12:42:45;;;;;;;4.13;1.47;;;20.20;99.90;;;;;;5048500;28;21046;-70
2021/07/05 12:45:33;;;;;;;2.60;1.20;;;20.40;99.90;;;;;;5048642;28;20782;-70
2021/07/05 12:48:22;;;;;;;2.03;1.43;;;20.40;99.90;;;;;;5045489;28;20470;-70
2021/07/05 12:51:09;;;;;;;3.67;1.43;;;20.50;99.90;;;;;;5048655;28;20415;-70
2021/07/05 12:53:54;;;;;;;5.00;1.50;;;20.60;99.90;;;;;;5047903;28;20430;-70
2021/07/05 12:56:40;;;;;;;3.00;1.67;;;20.60;99.90;;;;;;5042747;28;20537;-70
2021/07/05 12:59:26;;;;;;;2.37;1.43;;;20.40;99.90;;;;;;5046111;28;20429;-70
2021/07/05 13:02:24;;;;;;;2.10;1.30;;;20.20;99.90;;;;;;5049585;28;20578;-70
2021/07/05 13:05:13;;;;;;;1.90;1.47;;;20.00;99.90;;;;;;5046354;28;20443;-70
2021/07/05 13:08:00;;;;;;;4.33;1.77;;;19.90;99.90;;;;;;5050705;28;20784;-71
2021/07/05 13:10:46;;;;;;;2.40;1.43;;;19.90;99.90;;;;;;5048761;28;20509;-70
2021/07/05 13:13:36;;;;;;;8.87;1.60;;;19.80;99.90;;;;;;5052146;28;20494;-70
2021/07/05 13:16:24;;;;;;;1.80;1.40;;;20.00;99.90;;;;;;5052632;28;20418;-70
2021/07/05 13:19:13;;;;;;;3.23;1.50;;;20.10;99.90;;;;;;5052602;28;20461;-70
2021/07/05 13:22:12;;;;;;;10.50;1.40;;;20.40;99.90;;;;;;5050522;28;20470;-70
2021/07/05 13:25:00;;;;;;;2.10;1.30;;;20.70;99.90;;;;;;5052832;28;20803;-70
2021/07/05 13:27:46;;;;;;;2.40;1.27;;;20.90;99.90;;;;;;5048875;28;20567;-70
2021/07/05 13:30:32;;;;;;;7.43;1.40;;;20.90;99.90;;;;;;5048983;28;20411;-70
2021/07/05 13:33:19;;;;;;;2.33;1.40;;;21.00;99.90;;;;;;5048530;28;20829;-70
2021/07/05 13:36:06;;;;;;;2.30;1.30;;;21.20;99.90;;;;;;5052350;28;20528;-70
2021/07/05 13:38:53;;;;;;;2.40;1.20;;;21.30;99.90;;;;;;5049447;28;20996;-70
2021/07/05 13:41:38;;;;;;;2.33;1.10;;;21.50;99.90;;;;;;5050048;28;20523;-70
2021/07/05 13:44:26;;;;;;;6.97;1.23;;;21.60;99.90;;;;;;5047814;28;20917;-70
2021/07/05 13:47:23;;;;;;;2.87;1.37;;;21.80;99.90;;;;;;5048654;28;21111;-70
2021/07/05 13:50:15;;;;;;;4.73;1.00;;;21.70;99.90;;;;;;5048147;28;20595;-70
2021/07/05 13:53:02;;;;;;;2.60;1.70;;;21.60;99.90;;;;;;5047480;28;20499;-70
2021/07/05 13:58:26;;;;;;;5.43;3.27;;;21.50;99.90;;;;;;5031693;28;20431;-73
2021/07/05 14:01:14;;;;;;;8.53;1.60;;;21.40;99.90;;;;;;5027652;28;20441;-74
2021/07/05 14:04:01;;;;;;;2.70;1.37;;;21.20;99.90;;;;;;5033349;28;20404;-74
2021/07/05 14:06:47;;;;;;;2.23;1.43;;;21.10;99.90;;;;;;5033238;28;20806;-74
2021/07/05 14:09:32;;;;;;;4.10;1.40;;;21.10;99.90;;;;;;5031699;28;20447;-74
2021/07/05 14:12:18;;;;;;;3.93;1.00;;;21.10;99.90;;;;;;5033321;28;20441;-74
2021/07/05 14:15:08;;;;;;;5.03;1.40;;;20.80;99.90;;;;;;5033101;28;20414;-74
2021/07/05 14:17:54;;;;;;;2.10;1.30;;;20.60;99.90;;;;;;5033159;28;20452;-74
2021/07/05 14:20:40;;;;;;;2.47;1.20;;;20.80;99.90;;;;;;5013067;28;20383;-74
2021/07/05 14:23:27;;;;;;;3.03;1.50;;;21.00;99.90;;;;;;5013283;28;20437;-73
2021/07/05 14:26:12;;;;;;;3.07;1.37;;;21.00;99.90;;;;;;5012860;28;20417;-73
2021/07/05 14:28:58;;;;;;;6.80;1.43;;;20.90;99.90;;;;;;5012993;28;20466;-74
2021/07/05 14:31:45;;;;;;;2.07;1.40;;;21.00;99.90;;;;;;5013218;28;20938;-74
2021/07/05 14:34:31;;;;;;;4.40;1.30;;;21.10;99.90;;;;;;5012822;28;20960;-74